createdAt,value
2023-10-09T00:00:40.862Z,12
2023-10-09T00:01:57.181Z,12
2023-10-09T00:03:13.446Z,12
2023-10-09T00:04:29.749Z,11.9
2023-10-09T00:05:46.033Z,11.9
2023-10-09T00:07:02.364Z,11.8
2023-10-09T00:08:17.636Z,11.7
2023-10-09T00:09:33.959Z,11.8
2023-10-09T00:10:50.255Z,11.8
2023-10-09T00:12:06.560Z,11.8
2023-10-09T00:13:22.813Z,11.9
2023-10-09T00:14:39.144Z,11.9
2023-10-09T00:15:55.402Z,11.9
2023-10-09T00:17:11.685Z,12
2023-10-09T00:18:28.017Z,12
2023-10-09T00:19:44.312Z,12
2023-10-09T00:21:00.580Z,12
2023-10-09T00:22:16.916Z,12
2023-10-09T00:23:33.197Z,12
2023-10-09T00:24:48.503Z,11.9
2023-10-09T00:26:04.794Z,12
2023-10-09T00:27:21.093Z,12
2023-10-09T00:28:37.000Z,12
2023-10-09T00:29:53.689Z,12
2023-10-09T00:31:09.947Z,12.1
2023-10-09T00:32:26.265Z,12.1
2023-10-09T00:33:42.563Z,12.1
2023-10-09T00:34:58.823Z,12.1
2023-10-09T00:36:15.112Z,12.1
2023-10-09T00:37:31.401Z,12.1
2023-10-09T00:38:47.695Z,12.1
2023-10-09T00:40:04.029Z,12.1
2023-10-09T00:41:19.341Z,12
2023-10-09T00:42:35.630Z,12
2023-10-09T00:43:51.902Z,12
2023-10-09T00:45:08.185Z,12
2023-10-09T00:46:24.475Z,12
2023-10-09T00:47:40.769Z,12
2023-10-09T00:48:57.068Z,12
2023-10-09T00:50:13.360Z,12
2023-10-09T00:51:29.686Z,12
2023-10-09T00:52:45.978Z,12
2023-10-09T00:54:02.242Z,12
2023-10-09T00:55:18.573Z,12.1
2023-10-09T00:56:34.871Z,12.1
2023-10-09T00:57:50.146Z,12.1
2023-10-09T00:59:06.441Z,12
2023-10-09T01:00:22.757Z,12
2023-10-09T01:01:39.021Z,12
2023-10-09T01:02:55.306Z,12
2023-10-09T01:04:11.609Z,12
2023-10-09T01:05:27.892Z,11.9
2023-10-09T01:06:44.192Z,11.9
2023-10-09T01:08:00.534Z,11.9
2023-10-09T01:09:16.823Z,12
2023-10-09T01:10:33.123Z,12
2023-10-09T01:11:49.399Z,12
2023-10-09T01:13:05.663Z,12
2023-10-09T01:14:20.968Z,12
2023-10-09T01:15:37.293Z,11.9
2023-10-09T01:16:53.596Z,11.9
2023-10-09T01:18:09.844Z,12
2023-10-09T01:19:26.148Z,12
2023-10-09T01:20:42.434Z,12
2023-10-09T01:21:58.774Z,12.1
2023-10-09T01:23:15.034Z,12.1
2023-10-09T01:24:31.352Z,12.1
2023-10-09T01:25:47.641Z,12.2
2023-10-09T01:27:03.898Z,12.2
2023-10-09T01:28:20.196Z,12.1
2023-10-09T01:29:36.495Z,12.1
2023-10-09T01:30:51.838Z,12.1
2023-10-09T01:32:08.133Z,12.1
2023-10-09T01:33:24.380Z,12.1
2023-10-09T01:34:40.722Z,12.1
2023-10-09T01:35:56.965Z,12.1
2023-10-09T01:37:13.269Z,12.1
2023-10-09T01:38:29.551Z,12
2023-10-09T01:39:45.883Z,12
2023-10-09T01:41:02.176Z,12
2023-10-09T01:42:18.442Z,12
2023-10-09T01:43:34.768Z,12
2023-10-09T01:44:51.027Z,12
2023-10-09T01:46:07.314Z,12
2023-10-09T01:47:22.663Z,12.1
2023-10-09T01:48:38.955Z,12
2023-10-09T01:49:55.255Z,12.1
2023-10-09T01:51:11.508Z,12.1
2023-10-09T01:52:27.802Z,12.1
2023-10-09T01:53:44.129Z,12.1
2023-10-09T01:55:00.427Z,12.1
2023-10-09T01:56:16.679Z,12.1
2023-10-09T01:57:33.014Z,12.2
2023-10-09T01:58:49.265Z,12.2
2023-10-09T02:00:05.560Z,12.2
2023-10-09T02:01:21.910Z,12.2
2023-10-09T02:02:38.147Z,12.2
2023-10-09T02:03:54.564Z,12.2
2023-10-09T02:05:10.899Z,12.2
2023-10-09T02:06:27.152Z,12.2
2023-10-09T02:07:43.496Z,12.1
2023-10-09T02:08:59.785Z,12.1
2023-10-09T02:10:16.051Z,12
2023-10-09T02:11:32.327Z,11.9
2023-10-09T02:12:48.668Z,11.9
2023-10-09T02:14:04.960Z,11.9
2023-10-09T02:15:21.259Z,11.9
2023-10-09T02:16:37.499Z,11.9
2023-10-09T02:17:53.802Z,11.8
2023-10-09T02:19:10.144Z,11.9
2023-10-09T02:20:25.406Z,11.9
2023-10-09T02:21:41.693Z,11.9
2023-10-09T02:22:58.001Z,11.9
2023-10-09T02:24:14.333Z,11.8
2023-10-09T02:25:30.612Z,11.9
2023-10-09T02:26:46.908Z,11.9
2023-10-09T02:28:03.160Z,11.9
2023-10-09T02:29:19.499Z,11.9
2023-10-09T02:30:35.798Z,11.9
2023-10-09T02:31:52.057Z,11.9
2023-10-09T02:33:08.341Z,11.9
2023-10-09T02:34:24.629Z,12
2023-10-09T02:35:40.925Z,12
2023-10-09T02:36:56.235Z,12
2023-10-09T02:38:12.535Z,12
2023-10-09T02:39:28.820Z,12.1
2023-10-09T02:40:45.155Z,12.1
2023-10-09T02:42:01.414Z,12.1
2023-10-09T02:43:17.750Z,12.1
2023-10-09T02:44:34.004Z,12.1
2023-10-09T02:45:50.333Z,12.1
2023-10-09T02:47:06.593Z,12.2
2023-10-09T02:48:22.919Z,12.1
2023-10-09T02:49:39.216Z,12.1
2023-10-09T02:50:55.474Z,12.1
2023-10-09T02:52:11.801Z,12.2
2023-10-09T02:53:27.112Z,12.2
2023-10-09T02:54:43.402Z,12.1
2023-10-09T02:55:59.665Z,12.1
2023-10-09T02:57:15.995Z,12.1
2023-10-09T02:58:32.249Z,12
2023-10-09T02:59:48.540Z,12
2023-10-09T03:01:03.854Z,12
2023-10-09T03:02:20.153Z,12
2023-10-09T03:03:36.492Z,12
2023-10-09T03:04:52.774Z,12
2023-10-09T03:06:09.065Z,12.1
2023-10-09T03:07:25.329Z,12.1
2023-10-09T03:08:41.617Z,12
2023-10-09T03:09:57.919Z,12
2023-10-09T03:11:14.246Z,12
2023-10-09T03:12:30.502Z,12
2023-10-09T03:13:46.792Z,12
2023-10-09T03:15:03.083Z,12
2023-10-09T03:16:19.385Z,12
2023-10-09T03:17:35.841Z,12
2023-10-09T03:18:52.125Z,12
2023-10-09T03:20:08.380Z,12
2023-10-09T03:21:24.724Z,12.1
2023-10-09T03:22:41.013Z,12.1
2023-10-09T03:23:57.261Z,12.2
2023-10-09T03:25:13.602Z,12.2
2023-10-09T03:26:29.852Z,12.2
2023-10-09T03:27:46.181Z,12.2
2023-10-09T03:29:02.435Z,12.2
2023-10-09T03:30:18.744Z,12.2
2023-10-09T03:31:35.025Z,12.2
2023-10-09T03:32:51.358Z,12.2
2023-10-09T03:34:06.633Z,12.1
2023-10-09T03:35:22.922Z,12.1
2023-10-09T03:36:39.215Z,12.1
2023-10-09T03:37:55.547Z,12
2023-10-09T03:39:11.809Z,12
2023-10-09T03:40:28.107Z,12
2023-10-09T03:41:44.391Z,12
2023-10-09T03:43:00.723Z,12
2023-10-09T03:44:17.020Z,11.9
2023-10-09T03:45:33.280Z,11.9
2023-10-09T03:46:49.570Z,12
2023-10-09T03:48:05.900Z,11.9
2023-10-09T03:49:22.164Z,12
2023-10-09T03:50:37.464Z,12
2023-10-09T03:51:53.762Z,12
2023-10-09T03:53:10.054Z,12
2023-10-09T03:54:26.354Z,12
2023-10-09T03:55:42.680Z,12
2023-10-09T03:56:58.931Z,12.1
2023-10-09T03:58:15.265Z,12.1
2023-10-09T03:59:31.569Z,12.1
2023-10-09T04:00:47.000Z,12.2
2023-10-09T04:02:04.152Z,12.2
2023-10-09T04:03:20.407Z,12.3
2023-10-09T04:04:36.694Z,12.3
2023-10-09T04:05:52.989Z,12.3
2023-10-09T04:07:08.301Z,12.3
2023-10-09T04:08:24.594Z,12.3
2023-10-09T04:09:40.901Z,12.3
2023-10-09T04:10:57.219Z,12.3
2023-10-09T04:12:13.469Z,12.3
2023-10-09T04:13:29.778Z,12.3
2023-10-09T04:14:46.110Z,12.3
2023-10-09T04:16:02.366Z,12.3
2023-10-09T04:17:18.649Z,12.3
2023-10-09T04:18:34.988Z,12.3
2023-10-09T04:19:51.282Z,12.3
2023-10-09T04:21:07.570Z,12.2
2023-10-09T04:22:23.820Z,12.2
2023-10-09T04:23:39.140Z,12.2
2023-10-09T04:24:55.441Z,12.3
2023-10-09T04:26:11.729Z,12.3
2023-10-09T04:27:28.014Z,12.3
2023-10-09T04:28:44.305Z,12.3
2023-10-09T04:30:00.599Z,12.2
2023-10-09T04:31:16.944Z,12.2
2023-10-09T04:32:33.202Z,12.1
2023-10-09T04:33:49.538Z,12.1
2023-10-09T04:35:05.824Z,12.1
2023-10-09T04:36:22.067Z,12.1
2023-10-09T04:37:38.370Z,12.2
2023-10-09T04:38:54.712Z,12.2
2023-10-09T04:40:09.975Z,12.3
2023-10-09T04:41:26.260Z,12.3
2023-10-09T04:42:42.610Z,12.3
2023-10-09T04:43:58.847Z,12.4
2023-10-09T04:45:15.188Z,12.4
2023-10-09T04:46:31.479Z,12.4
2023-10-09T04:47:47.731Z,12.4
2023-10-09T04:49:04.000Z,12.4
2023-10-09T04:50:20.356Z,12.4
2023-10-09T04:51:36.660Z,12.4
2023-10-09T04:52:52.959Z,12.3
2023-10-09T04:54:09.240Z,12.3
2023-10-09T04:55:25.488Z,12.2
2023-10-09T04:56:41.907Z,12.2
2023-10-09T04:57:58.204Z,12.2
2023-10-09T04:59:14.504Z,12.2
2023-10-09T05:00:30.798Z,12.2
2023-10-09T05:01:47.077Z,12.1
2023-10-09T05:03:03.368Z,12.1
2023-10-09T05:04:19.000Z,12.2
2023-10-09T05:05:36.021Z,12.2
2023-10-09T05:06:52.242Z,12.2
2023-10-09T05:08:08.544Z,12.2
2023-10-09T05:09:24.787Z,12.2
2023-10-09T05:10:40.984Z,12.2
2023-10-09T05:11:57.222Z,12.1
2023-10-09T05:13:12.484Z,12.1
2023-10-09T05:14:28.000Z,12.1
2023-10-09T05:15:45.023Z,12.1
2023-10-09T05:17:01.313Z,12.1
2023-10-09T05:18:17.518Z,12.2
2023-10-09T05:19:33.742Z,12.2
2023-10-09T05:20:49.990Z,12.2
2023-10-09T05:22:06.268Z,12.2
2023-10-09T05:23:22.513Z,12.3
2023-10-09T05:24:38.711Z,12.2
2023-10-09T05:25:54.939Z,12.2
2023-10-09T05:27:11.234Z,12.2
2023-10-09T05:28:27.471Z,12.2
2023-10-09T05:29:42.720Z,12.2
2023-10-09T05:30:58.958Z,12.2
2023-10-09T05:32:15.201Z,12.2
2023-10-09T05:33:31.404Z,12.3
2023-10-09T05:34:47.678Z,12.3
2023-10-09T05:36:03.870Z,12.3
2023-10-09T05:37:20.162Z,12.3
2023-10-09T05:38:36.357Z,12.3
2023-10-09T05:39:52.000Z,12.3
2023-10-09T05:41:08.895Z,12.4
2023-10-09T05:42:25.115Z,12.4
2023-10-09T05:43:41.308Z,12.4
2023-10-09T05:44:57.550Z,12.5
2023-10-09T05:46:12.864Z,12.4
2023-10-09T05:47:29.044Z,12.5
2023-10-09T05:48:45.333Z,12.5
2023-10-09T05:50:01.537Z,12.5
2023-10-09T05:51:17.765Z,12.5
2023-10-09T05:52:34.000Z,12.5
2023-10-09T05:53:50.290Z,12.5
2023-10-09T05:55:06.481Z,12.6
2023-10-09T05:56:22.722Z,12.5
2023-10-09T05:57:38.961Z,12.5
2023-10-09T05:58:55.215Z,12.5
2023-10-09T06:00:11.442Z,12.4
2023-10-09T06:01:27.691Z,12.5
2023-10-09T06:02:42.991Z,12.5
2023-10-09T06:03:59.235Z,12.4
2023-10-09T06:05:15.420Z,12.4
2023-10-09T06:06:31.664Z,12.4
2023-10-09T06:07:47.945Z,12.4
2023-10-09T06:09:04.137Z,12.4
2023-10-09T06:10:20.379Z,12.5
2023-10-09T06:11:36.671Z,12.5
2023-10-09T06:12:52.903Z,12.5
2023-10-09T06:14:09.095Z,12.5
2023-10-09T06:15:25.386Z,12.5
2023-10-09T06:16:41.631Z,12.5
2023-10-09T06:17:57.810Z,12.6
2023-10-09T06:19:13.129Z,12.6
2023-10-09T06:20:29.000Z,12.6
2023-10-09T06:21:45.556Z,12.6
2023-10-09T06:23:01.793Z,12.6
2023-10-09T06:24:18.029Z,12.6
2023-10-09T06:25:34.274Z,12.5
2023-10-09T06:26:50.554Z,12.5
2023-10-09T06:28:06.745Z,12.5
2023-10-09T06:29:22.985Z,12.5
2023-10-09T06:30:39.275Z,12.5
2023-10-09T06:31:55.509Z,12.5
2023-10-09T06:33:11.749Z,12.5
2023-10-09T06:34:27.959Z,12.5
2023-10-09T06:35:43.203Z,12.6
2023-10-09T06:36:59.448Z,12.6
2023-10-09T06:38:15.723Z,12.7
2023-10-09T06:39:31.000Z,12.7
2023-10-09T06:40:48.205Z,12.7
2023-10-09T06:42:04.449Z,12.7
2023-10-09T06:43:20.699Z,12.8
2023-10-09T06:44:36.919Z,12.7
2023-10-09T06:45:53.162Z,12.8
2023-10-09T06:47:09.400Z,12.8
2023-10-09T06:48:25.591Z,12.8
2023-10-09T06:49:41.879Z,12.8
2023-10-09T06:50:58.129Z,12.8
2023-10-09T06:52:13.324Z,12.8
2023-10-09T06:53:29.573Z,12.8
2023-10-09T06:54:45.806Z,12.9
2023-10-09T06:56:02.049Z,12.9
2023-10-09T06:57:18.281Z,12.9
2023-10-09T06:58:34.579Z,13
2023-10-09T06:59:50.775Z,13
2023-10-09T07:01:07.007Z,13
2023-10-09T07:02:23.242Z,13
2023-10-09T07:03:39.539Z,13.1
2023-10-09T07:04:55.735Z,13.1
2023-10-09T07:06:12.009Z,13.1
2023-10-09T07:07:28.000Z,13.2
2023-10-09T07:08:43.459Z,13.2
2023-10-09T07:09:59.749Z,13.3
2023-10-09T07:11:15.940Z,13.3
2023-10-09T07:12:32.227Z,13.4
2023-10-09T07:13:48.421Z,13.4
2023-10-09T07:15:04.712Z,13.4
2023-10-09T07:16:19.922Z,13.4
2023-10-09T07:17:36.160Z,13.5
2023-10-09T07:18:52.393Z,13.4
2023-10-09T07:20:08.638Z,13.5
2023-10-09T07:21:24.928Z,13.5
2023-10-09T07:22:41.175Z,13.5
2023-10-09T07:23:57.354Z,13.5
2023-10-09T07:25:13.641Z,13.5
2023-10-09T07:26:29.840Z,13.5
2023-10-09T07:27:46.085Z,13.5
2023-10-09T07:29:02.318Z,13.6
2023-10-09T07:30:18.564Z,13.6
2023-10-09T07:31:34.812Z,13.6
2023-10-09T07:32:50.042Z,13.6
2023-10-09T07:34:06.312Z,13.6
2023-10-09T07:35:22.526Z,13.6
2023-10-09T07:36:38.764Z,13.6
2023-10-09T07:37:55.017Z,13.7
2023-10-09T07:39:11.255Z,13.7
2023-10-09T07:40:27.506Z,13.7
2023-10-09T07:41:43.719Z,13.7
2023-10-09T07:42:59.968Z,13.7
2023-10-09T07:44:16.199Z,13.7
2023-10-09T07:45:32.444Z,13.7
2023-10-09T07:46:48.693Z,13.7
2023-10-09T07:48:04.937Z,13.7
2023-10-09T07:49:21.000Z,13.8
2023-10-09T07:50:37.533Z,13.8
2023-10-09T07:51:53.757Z,13.8
2023-10-09T07:53:10.021Z,13.8
2023-10-09T07:54:26.260Z,13.8
2023-10-09T07:55:42.493Z,13.8
2023-10-09T07:56:58.746Z,13.8
2023-10-09T07:58:14.971Z,13.9
2023-10-09T07:59:31.000Z,13.8
2023-10-09T08:00:47.450Z,13.9
2023-10-09T08:02:03.694Z,13.9
2023-10-09T08:03:19.939Z,13.9
2023-10-09T08:04:36.178Z,13.9
2023-10-09T08:05:51.432Z,13.9
2023-10-09T08:07:07.000Z,13.9
2023-10-09T08:08:23.903Z,13.9
2023-10-09T08:09:40.139Z,14
2023-10-09T08:10:56.387Z,14
2023-10-09T08:12:12.620Z,14
2023-10-09T08:13:28.876Z,14
2023-10-09T08:14:45.097Z,14
2023-10-09T08:16:01.349Z,14
2023-10-09T08:17:17.582Z,14
2023-10-09T08:18:33.000Z,14
2023-10-09T08:19:50.065Z,14
2023-10-09T08:21:06.306Z,14
2023-10-09T08:22:21.553Z,14
2023-10-09T08:23:37.790Z,14
2023-10-09T08:24:54.034Z,14
2023-10-09T08:26:10.285Z,14
2023-10-09T08:27:26.000Z,14
2023-10-09T08:28:42.761Z,14
2023-10-09T08:29:58.993Z,14
2023-10-09T08:31:15.230Z,14
2023-10-09T08:32:31.481Z,14
2023-10-09T08:33:47.704Z,14
2023-10-09T08:35:03.955Z,14
2023-10-09T08:36:20.185Z,14
2023-10-09T08:37:36.000Z,14
2023-10-09T08:38:51.682Z,14
2023-10-09T08:40:07.929Z,14
2023-10-09T08:41:24.155Z,14.1
2023-10-09T08:42:40.400Z,14.1
2023-10-09T08:43:56.633Z,14.1
2023-10-09T08:45:12.871Z,14.1
2023-10-09T08:46:29.122Z,14.1
2023-10-09T08:47:45.000Z,14.1
2023-10-09T08:49:01.000Z,14.1
2023-10-09T08:50:17.825Z,14.1
2023-10-09T08:51:34.064Z,14.1
2023-10-09T08:52:50.310Z,14.1
2023-10-09T08:54:06.546Z,14
2023-10-09T08:55:21.819Z,14.1
2023-10-09T08:56:38.040Z,14
2023-10-09T08:57:54.283Z,14
2023-10-09T08:59:10.524Z,14
2023-10-09T09:00:26.760Z,14.1
2023-10-09T09:01:42.998Z,14.1
2023-10-09T09:02:59.240Z,14.1
2023-10-09T09:04:15.484Z,14.1
2023-10-09T09:05:31.729Z,14.1
2023-10-09T09:06:47.968Z,14.1
2023-10-09T09:08:04.211Z,14.1
2023-10-09T09:09:20.436Z,14.1
2023-10-09T09:10:36.673Z,14.1
2023-10-09T09:11:51.929Z,14.1
2023-10-09T09:13:08.174Z,14.1
2023-10-09T09:14:24.407Z,14.1
2023-10-09T09:15:40.647Z,14.1
2023-10-09T09:16:56.884Z,14.2
2023-10-09T09:18:13.123Z,14.1
2023-10-09T09:19:29.378Z,14.1
2023-10-09T09:20:45.602Z,14.1
2023-10-09T09:22:01.849Z,14.2
2023-10-09T09:23:18.088Z,14.2
2023-10-09T09:24:34.313Z,14.2
2023-10-09T09:25:50.564Z,14.1
2023-10-09T09:27:06.803Z,14.1
2023-10-09T09:28:22.062Z,14.1
2023-10-09T09:29:38.295Z,14.1
2023-10-09T09:30:54.524Z,14.2
2023-10-09T09:32:10.779Z,14.2
2023-10-09T09:33:27.016Z,14.2
2023-10-09T09:34:43.257Z,14.2
2023-10-09T09:35:59.492Z,14.2
2023-10-09T09:37:15.724Z,14.3
2023-10-09T09:38:31.971Z,14.3
2023-10-09T09:39:48.201Z,14.4
2023-10-09T09:41:04.454Z,14.4
2023-10-09T09:42:20.693Z,14.4
2023-10-09T09:43:36.927Z,14.5
2023-10-09T09:44:52.186Z,14.4
2023-10-09T09:46:08.419Z,14.4
2023-10-09T09:47:24.654Z,14.5
2023-10-09T09:48:40.905Z,14.5
2023-10-09T09:49:57.133Z,14.6
2023-10-09T09:51:13.386Z,14.6
2023-10-09T09:52:29.618Z,14.6
2023-10-09T09:53:45.845Z,14.6
2023-10-09T09:55:02.085Z,14.6
2023-10-09T09:56:18.333Z,14.6
2023-10-09T09:57:34.565Z,14.6
2023-10-09T09:58:50.814Z,14.6
2023-10-09T10:00:07.051Z,14.6
2023-10-09T10:01:22.295Z,14.7
2023-10-09T10:02:38.547Z,14.6
2023-10-09T10:03:54.778Z,14.6
2023-10-09T10:05:11.014Z,14.6
2023-10-09T10:06:27.262Z,14.7
2023-10-09T10:07:43.501Z,14.7
2023-10-09T10:08:59.722Z,14.8
2023-10-09T10:10:15.962Z,14.9
2023-10-09T10:11:32.210Z,14.9
2023-10-09T10:12:48.457Z,14.9
2023-10-09T10:14:04.697Z,15
2023-10-09T10:15:20.926Z,15
2023-10-09T10:16:37.166Z,15
2023-10-09T10:17:52.415Z,15.1
2023-10-09T10:19:08.659Z,15
2023-10-09T10:20:24.899Z,15.1
2023-10-09T10:21:41.128Z,15.1
2023-10-09T10:22:57.380Z,15.1
2023-10-09T10:24:13.609Z,15.2
2023-10-09T10:25:29.849Z,15.2
2023-10-09T10:26:46.087Z,15.3
2023-10-09T10:28:02.322Z,15.3
2023-10-09T10:29:18.565Z,15.3
2023-10-09T10:30:34.807Z,15.3
2023-10-09T10:31:51.040Z,15.2
2023-10-09T10:33:07.295Z,15.2
2023-10-09T10:34:22.525Z,15.1
2023-10-09T10:35:38.772Z,15.1
2023-10-09T10:36:55.021Z,15.1
2023-10-09T10:38:11.245Z,15.1
2023-10-09T10:39:27.492Z,15.2
2023-10-09T10:40:43.720Z,15.2
2023-10-09T10:41:59.962Z,15.1
2023-10-09T10:43:16.208Z,15.1
2023-10-09T10:44:32.433Z,15.1
2023-10-09T10:45:48.676Z,15
2023-10-09T10:47:04.916Z,15.1
2023-10-09T10:48:21.168Z,15.1
2023-10-09T10:49:37.404Z,15
2023-10-09T10:50:52.646Z,15
2023-10-09T10:52:08.890Z,15
2023-10-09T10:53:25.128Z,15
2023-10-09T10:54:41.360Z,15
2023-10-09T10:55:57.606Z,15
2023-10-09T10:57:13.840Z,15
2023-10-09T10:58:30.088Z,15
2023-10-09T10:59:46.329Z,15
2023-10-09T11:01:02.558Z,15
2023-10-09T11:02:18.795Z,15
2023-10-09T11:03:35.043Z,15
2023-10-09T11:04:51.269Z,15
2023-10-09T11:06:07.527Z,15
2023-10-09T11:07:22.784Z,15
2023-10-09T11:08:39.014Z,15
2023-10-09T11:09:55.253Z,15.1
2023-10-09T11:11:11.484Z,15.1
2023-10-09T11:12:27.718Z,15.1
2023-10-09T11:13:43.968Z,15.1
2023-10-09T11:15:00.206Z,15.1
2023-10-09T11:16:16.450Z,15.1
2023-10-09T11:17:32.686Z,15.1
2023-10-09T11:18:48.917Z,15.1
2023-10-09T11:20:05.159Z,15.1
2023-10-09T11:21:21.403Z,15.1
2023-10-09T11:22:37.634Z,15.1
2023-10-09T11:23:52.883Z,15.1
2023-10-09T11:25:09.122Z,15.1
2023-10-09T11:26:25.365Z,15.1
2023-10-09T11:27:41.612Z,15.1
2023-10-09T11:28:57.846Z,15.2
2023-10-09T11:30:14.091Z,15.2
2023-10-09T11:31:29.353Z,15.2
2023-10-09T11:32:45.589Z,15.2
2023-10-09T11:34:01.815Z,15.1
2023-10-09T11:35:18.060Z,15.2
2023-10-09T11:36:34.306Z,15.1
2023-10-09T11:37:50.547Z,15.1
2023-10-09T11:39:06.778Z,15.1
2023-10-09T11:40:23.018Z,15.1
2023-10-09T11:41:39.267Z,15.1
2023-10-09T11:42:55.493Z,15
2023-10-09T11:44:11.728Z,15
2023-10-09T11:45:27.963Z,15
2023-10-09T11:46:44.214Z,15
2023-10-09T11:47:59.468Z,15
2023-10-09T11:49:15.715Z,15
2023-10-09T11:50:31.942Z,15
2023-10-09T11:51:48.175Z,15
2023-10-09T11:53:04.422Z,15
2023-10-09T11:54:20.651Z,15
2023-10-09T11:55:36.902Z,15
2023-10-09T11:56:53.137Z,14.9
2023-10-09T11:58:09.373Z,14.9
2023-10-09T11:59:25.620Z,14.9
2023-10-09T12:00:41.854Z,15
2023-10-09T12:01:58.091Z,15
2023-10-09T12:03:14.343Z,14.9
2023-10-09T12:04:29.587Z,14.9
2023-10-09T12:05:45.830Z,15
2023-10-09T12:07:02.077Z,15
2023-10-09T12:08:18.302Z,15
2023-10-09T12:09:34.536Z,15
2023-10-09T12:10:50.790Z,15
2023-10-09T12:12:07.025Z,15.1
2023-10-09T12:13:23.259Z,15.1
2023-10-09T12:14:39.494Z,15
2023-10-09T12:15:55.727Z,15
2023-10-09T12:17:11.964Z,15
2023-10-09T12:18:28.216Z,15
2023-10-09T12:19:44.451Z,15
2023-10-09T12:20:59.709Z,15
2023-10-09T12:22:15.935Z,15
2023-10-09T12:23:32.185Z,15
2023-10-09T12:26:04.667Z,15
2023-10-09T12:27:20.894Z,15
2023-10-09T12:28:37.139Z,15
2023-10-09T12:29:53.381Z,15.1
2023-10-09T12:31:09.607Z,15
2023-10-09T12:32:25.866Z,15
2023-10-09T12:33:42.107Z,15
2023-10-09T12:34:58.331Z,15
2023-10-09T12:36:14.569Z,15
2023-10-09T12:37:29.835Z,15
2023-10-09T12:38:46.069Z,15
2023-10-09T12:40:02.295Z,15
2023-10-09T12:41:18.541Z,15
2023-10-09T12:42:34.773Z,15
2023-10-09T12:43:51.015Z,15
2023-10-09T12:45:07.257Z,15
2023-10-09T12:46:23.504Z,15
2023-10-09T12:47:39.737Z,15
2023-10-09T12:48:55.969Z,15.1
2023-10-09T12:50:12.215Z,15.1
2023-10-09T12:51:28.452Z,15.1
2023-10-09T12:52:44.698Z,15.1
2023-10-09T12:53:59.946Z,15.1
2023-10-09T12:55:16.194Z,15.1
2023-10-09T12:56:32.426Z,15.1
2023-10-09T12:57:48.676Z,15.1
2023-10-09T12:59:04.893Z,15.1
2023-10-09T13:00:21.136Z,15.1
2023-10-09T13:01:37.381Z,15.1
2023-10-09T13:02:53.608Z,15.1
2023-10-09T13:04:09.865Z,15.1
2023-10-09T13:05:26.098Z,15.1
2023-10-09T13:06:42.324Z,15.1
2023-10-09T13:07:58.578Z,15.1
2023-10-09T13:09:14.808Z,15.1
2023-10-09T13:10:30.068Z,15.1
2023-10-09T13:11:46.316Z,15.2
2023-10-09T13:13:02.557Z,15.2
2023-10-09T13:14:18.782Z,15.2
2023-10-09T13:15:35.030Z,15.2
2023-10-09T13:16:51.256Z,15.2
2023-10-09T13:18:07.497Z,15.1
2023-10-09T13:19:23.745Z,15.1
2023-10-09T13:20:39.975Z,15.2
2023-10-09T13:21:56.219Z,15.1
2023-10-09T13:23:12.451Z,15.2
2023-10-09T13:24:28.701Z,15.2
2023-10-09T13:25:44.944Z,15.1
2023-10-09T13:28:16.420Z,15.2
2023-10-09T13:29:32.659Z,15.2
2023-10-09T13:30:48.921Z,15.2
2023-10-09T13:32:05.137Z,15.1
2023-10-09T13:33:21.385Z,15.1
2023-10-09T13:34:37.629Z,15.2
2023-10-09T13:35:53.852Z,15.2
2023-10-09T13:37:10.122Z,15.2
2023-10-09T13:38:26.344Z,15.2
2023-10-09T13:39:42.582Z,15.2
2023-10-09T13:40:58.831Z,15.2
2023-10-09T13:42:15.063Z,15.2
2023-10-09T13:43:30.304Z,15.1
2023-10-09T13:44:46.546Z,15.2
2023-10-09T13:46:02.788Z,15.2
2023-10-09T13:47:19.033Z,15.1
2023-10-09T13:48:35.257Z,15.1
2023-10-09T13:49:51.508Z,15.1
2023-10-09T13:51:07.737Z,15.2
2023-10-09T13:52:23.988Z,15.2
2023-10-09T13:53:40.230Z,15.2
2023-10-09T13:54:56.468Z,15.1
2023-10-09T13:56:12.700Z,15.2
2023-10-09T13:57:28.946Z,15.2
2023-10-09T13:58:45.184Z,15.1
2023-10-09T14:00:00.427Z,15.2
2023-10-09T14:01:16.672Z,15.2
2023-10-09T14:02:32.928Z,15.2
2023-10-09T14:03:49.149Z,15.2
2023-10-09T14:05:05.383Z,15.2
2023-10-09T14:06:21.620Z,15.2
2023-10-09T14:07:37.864Z,15.2
2023-10-09T14:08:54.116Z,15.2
2023-10-09T14:10:10.369Z,15.2
2023-10-09T14:11:26.580Z,15.2
2023-10-09T14:12:42.829Z,15.2
2023-10-09T14:13:59.058Z,15.2
2023-10-09T14:15:15.295Z,15.2
2023-10-09T14:16:30.562Z,15.2
2023-10-09T14:17:46.798Z,15.2
2023-10-09T14:19:03.036Z,15.2
2023-10-09T14:20:19.265Z,15.2
2023-10-09T14:21:35.523Z,15.2
2023-10-09T14:22:51.756Z,15.2
2023-10-09T14:24:07.985Z,15.2
2023-10-09T14:25:24.228Z,15.2
2023-10-09T14:26:40.457Z,15.2
2023-10-09T14:27:56.711Z,15.2
2023-10-09T14:29:12.945Z,15.2
2023-10-09T14:30:29.189Z,15.2
2023-10-09T14:31:45.423Z,15.2
2023-10-09T14:33:00.685Z,15.3
2023-10-09T14:34:16.925Z,15.2
2023-10-09T14:35:33.153Z,15.2
2023-10-09T14:36:49.392Z,15.3
2023-10-09T14:38:05.640Z,15.3
2023-10-09T14:39:21.865Z,15.3
2023-10-09T14:40:38.119Z,15.2
2023-10-09T14:41:54.341Z,15.3
2023-10-09T14:43:10.582Z,15.2
2023-10-09T14:44:26.835Z,15.3
2023-10-09T14:45:43.075Z,15.3
2023-10-09T14:46:59.314Z,15.3
2023-10-09T14:48:15.542Z,15.3
2023-10-09T14:49:30.798Z,15.3
2023-10-09T14:50:47.029Z,15.3
2023-10-09T14:52:03.270Z,15.3
2023-10-09T14:53:19.512Z,15.3
2023-10-09T14:54:35.745Z,15.3
2023-10-09T14:55:51.988Z,15.3
2023-10-09T14:57:08.239Z,15.3
2023-10-09T14:58:24.479Z,15.2
2023-10-09T14:59:40.712Z,15.3
2023-10-09T15:00:56.952Z,15.3
2023-10-09T15:02:13.196Z,15.3
2023-10-09T15:03:29.419Z,15.3
2023-10-09T15:04:45.666Z,15.2
2023-10-09T15:06:00.931Z,15.3
2023-10-09T15:07:17.153Z,15.2
2023-10-09T15:08:33.393Z,15.2
2023-10-09T15:09:49.639Z,15.2
2023-10-09T15:11:05.900Z,15.3
2023-10-09T15:12:22.125Z,15.3
2023-10-09T15:13:38.374Z,15.3
2023-10-09T15:14:54.591Z,15.3
2023-10-09T15:16:10.842Z,15.3
2023-10-09T15:17:27.072Z,15.3
2023-10-09T15:18:43.316Z,15.3
2023-10-09T15:19:59.539Z,15.2
2023-10-09T15:21:15.786Z,15.3
2023-10-09T15:22:31.037Z,15.3
2023-10-09T15:23:47.281Z,15.3
2023-10-09T15:25:03.511Z,15.3
2023-10-09T15:26:19.777Z,15.3
2023-10-09T15:27:35.989Z,15.2
2023-10-09T15:28:52.229Z,15.2
2023-10-09T15:30:08.465Z,15.2
2023-10-09T15:31:24.715Z,15.2
2023-10-09T15:32:40.976Z,15.3
2023-10-09T15:33:57.191Z,15.3
2023-10-09T15:35:13.427Z,15.2
2023-10-09T15:36:29.687Z,15.3
2023-10-09T15:37:45.919Z,15.2
2023-10-09T15:39:01.161Z,15.2
2023-10-09T15:40:17.402Z,15.3
2023-10-09T15:41:33.643Z,15.3
2023-10-09T15:42:49.877Z,15.3
2023-10-09T15:44:06.131Z,15.3
2023-10-09T15:45:22.363Z,15.3
2023-10-09T15:46:37.613Z,15.3
2023-10-09T15:47:53.866Z,15.3
2023-10-09T15:49:10.097Z,15.3
2023-10-09T15:50:26.351Z,15.3
2023-10-09T15:51:42.578Z,15.3
2023-10-09T15:52:58.824Z,15.3
2023-10-09T15:54:15.058Z,15.3
2023-10-09T15:55:31.286Z,15.3
2023-10-09T15:56:47.539Z,15.3
2023-10-09T15:58:03.778Z,15.3
2023-10-09T15:59:20.000Z,15.3
2023-10-09T16:00:36.250Z,15.3
2023-10-09T16:01:52.486Z,15.3
2023-10-09T16:03:07.732Z,15.3
2023-10-09T16:04:23.980Z,15.3
2023-10-09T16:05:40.211Z,15.3
2023-10-09T16:06:56.482Z,15.3
2023-10-09T16:08:12.715Z,15.3
2023-10-09T16:09:28.942Z,15.3
2023-10-09T16:10:45.165Z,15.3
2023-10-09T16:12:01.412Z,15.3
2023-10-09T16:13:17.666Z,15.3
2023-10-09T16:14:33.900Z,15.3
2023-10-09T16:15:50.125Z,15.3
2023-10-09T16:17:06.388Z,15.3
2023-10-09T16:18:22.600Z,15.3
2023-10-09T16:19:37.855Z,15.3
2023-10-09T16:20:54.106Z,15.3
2023-10-09T16:22:10.332Z,15.3
2023-10-09T16:23:26.570Z,15.3
2023-10-09T16:24:42.818Z,15.3
2023-10-09T16:25:59.064Z,15.3
2023-10-09T16:27:15.312Z,15.3
2023-10-09T16:28:31.524Z,15.4
2023-10-09T16:29:47.767Z,15.3
2023-10-09T16:31:03.998Z,15.3
2023-10-09T16:32:20.264Z,15.4
2023-10-09T16:33:36.502Z,15.3
2023-10-09T16:34:52.781Z,15.4
2023-10-09T16:36:08.033Z,15.4
2023-10-09T16:37:24.263Z,15.4
2023-10-09T16:38:40.508Z,15.3
2023-10-09T16:39:56.781Z,15.3
2023-10-09T16:41:12.996Z,15.4
2023-10-09T16:42:29.315Z,15.4
2023-10-09T16:43:45.594Z,15.3
2023-10-09T16:45:01.846Z,15.4
2023-10-09T16:46:18.079Z,15.4
2023-10-09T16:47:34.305Z,15.4
2023-10-09T16:48:50.565Z,15.4
2023-10-09T16:50:06.868Z,15.4
2023-10-09T16:51:23.098Z,15.4
2023-10-09T16:52:39.517Z,15.4
2023-10-09T16:53:55.799Z,15.4
2023-10-09T16:55:12.104Z,15.4
2023-10-09T16:56:28.378Z,15.4
2023-10-09T16:57:44.694Z,15.4
2023-10-09T16:59:00.966Z,15.4
2023-10-09T17:00:17.287Z,15.4
2023-10-09T17:01:33.550Z,15.4
2023-10-09T17:02:49.867Z,15.4
2023-10-09T17:04:06.137Z,15.4
2023-10-09T17:05:22.449Z,15.4
2023-10-09T17:06:38.742Z,15.5
2023-10-09T17:07:55.018Z,15.5
2023-10-09T17:09:10.321Z,15.5
2023-10-09T17:10:26.616Z,15.5
2023-10-09T17:11:42.927Z,15.5